sensor_id;sensor_type;location;lat;lon;timestamp;temperature;humidity
2453;DHT22;63678;47.994;7.854;2023-05-10T00:01:28;14.00;99.90
2453;DHT22;63678;47.994;7.854;2023-05-10T00:04:00;14.00;99.90
2453;DHT22;63678;47.994;7.854;2023-05-10T00:06:33;14.00;99.90
2453;DHT22;63678;47.994;7.854;2023-05-10T00:09:06;14.00;99.90
2453;DHT22;63678;47.994;7.854;2023-05-10T00:11:38;14.00;99.90
2453;DHT22;63678;47.994;7.854;2023-05-10T00:14:12;14.00;99.90
2453;DHT22;63678;47.994;7.854;2023-05-10T00:16:44;14.00;99.90
2453;DHT22;63678;47.994;7.854;2023-05-10T00:21:49;14.00;99.90
2453;DHT22;63678;47.994;7.854;2023-05-10T00:26:54;14.00;99.90
2453;DHT22;63678;47.994;7.854;2023-05-10T00:29:26;13.90;99.90
2453;DHT22;63678;47.994;7.854;2023-05-10T00:34:32;13.90;99.90
2453;DHT22;63678;47.994;7.854;2023-05-10T00:37:05;13.90;99.90
2453;DHT22;63678;47.994;7.854;2023-05-10T00:39:37;13.90;99.90
2453;DHT22;63678;47.994;7.854;2023-05-10T00:42:10;13.90;99.90
2453;DHT22;63678;47.994;7.854;2023-05-10T00:44:42;13.90;99.90
2453;DHT22;63678;47.994;7.854;2023-05-10T00:47:16;13.80;99.90
2453;DHT22;63678;47.994;7.854;2023-05-10T00:52:21;13.90;99.90
2453;DHT22;63678;47.994;7.854;2023-05-10T00:54:55;13.80;99.90
2453;DHT22;63678;47.994;7.854;2023-05-10T00:57:28;14.00;99.90
2453;DHT22;63678;47.994;7.854;2023-05-10T01:00:05;14.20;99.90
2453;DHT22;63678;47.994;7.854;2023-05-10T01:10:39;14.70;99.90
2453;DHT22;63678;47.994;7.854;2023-05-10T01:13:12;14.40;99.90
2453;DHT22;63678;47.994;7.854;2023-05-10T01:15:46;14.50;99.90
2453;DHT22;63678;47.994;7.854;2023-05-10T01:18:20;14.40;99.90
2453;DHT22;63678;47.994;7.854;2023-05-10T01:35:55;14.00;99.90
2453;DHT22;63678;47.994;7.854;2023-05-10T01:38:51;14.00;99.90
2453;DHT22;63678;47.994;7.854;2023-05-10T01:41:46;14.10;99.90
2453;DHT22;63678;47.994;7.854;2023-05-10T01:47:15;13.90;99.90
2453;DHT22;63678;47.994;7.854;2023-05-10T01:49:54;13.90;99.90
2453;DHT22;63678;47.994;7.854;2023-05-10T01:52:32;13.80;99.90
2453;DHT22;63678;47.994;7.854;2023-05-10T01:55:11;13.70;99.90
2453;DHT22;63678;47.994;7.854;2023-05-10T01:57:46;13.80;99.90
2453;DHT22;63678;47.994;7.854;2023-05-10T02:00:20;13.80;99.90
2453;DHT22;63678;47.994;7.854;2023-05-10T02:02:56;14.00;99.90
2453;DHT22;63678;47.994;7.854;2023-05-10T02:05:29;13.90;99.90
2453;DHT22;63678;47.994;7.854;2023-05-10T02:08:05;13.80;99.90
2453;DHT22;63678;47.994;7.854;2023-05-10T02:10:41;13.70;99.90
2453;DHT22;63678;47.994;7.854;2023-05-10T02:13:15;14.10;99.90
2453;DHT22;63678;47.994;7.854;2023-05-10T02:15:48;14.20;99.90
2453;DHT22;63678;47.994;7.854;2023-05-10T02:18:22;14.10;99.90
2453;DHT22;63678;47.994;7.854;2023-05-10T02:20:55;14.20;99.90
2453;DHT22;63678;47.994;7.854;2023-05-10T02:23:29;14.30;99.90
2453;DHT22;63678;47.994;7.854;2023-05-10T02:26:02;14.30;99.90
2453;DHT22;63678;47.994;7.854;2023-05-10T02:28:35;14.10;99.90
2453;DHT22;63678;47.994;7.854;2023-05-10T02:31:10;14.00;99.90
2453;DHT22;63678;47.994;7.854;2023-05-10T02:33:43;14.60;99.90
2453;DHT22;63678;47.994;7.854;2023-05-10T02:36:16;14.40;99.90
2453;DHT22;63678;47.994;7.854;2023-05-10T02:38:50;14.40;99.90
2453;DHT22;63678;47.994;7.854;2023-05-10T02:41:24;14.20;99.90
2453;DHT22;63678;47.994;7.854;2023-05-10T02:44:01;14.20;99.90
2453;DHT22;63678;47.994;7.854;2023-05-10T02:46:35;14.30;99.90
2453;DHT22;63678;47.994;7.854;2023-05-10T02:49:09;14.00;99.90
2453;DHT22;63678;47.994;7.854;2023-05-10T02:51:55;13.90;99.90
2453;DHT22;63678;47.994;7.854;2023-05-10T02:54:33;13.90;99.90
2453;DHT22;63678;47.994;7.854;2023-05-10T02:57:06;13.90;99.90
2453;DHT22;63678;47.994;7.854;2023-05-10T03:02:12;13.90;99.90
2453;DHT22;63678;47.994;7.854;2023-05-10T03:04:45;14.00;99.90
2453;DHT22;63678;47.994;7.854;2023-05-10T03:07:17;13.90;99.90
2453;DHT22;63678;47.994;7.854;2023-05-10T03:09:53;13.80;99.90
2453;DHT22;63678;47.994;7.854;2023-05-10T03:12:41;13.80;99.90
2453;DHT22;63678;47.994;7.854;2023-05-10T03:15:39;13.70;99.90
2453;DHT22;63678;47.994;7.854;2023-05-10T03:18:21;13.60;99.90
2453;DHT22;63678;47.994;7.854;2023-05-10T03:21:00;13.50;99.90
2453;DHT22;63678;47.994;7.854;2023-05-10T03:23:54;13.50;99.90
2453;DHT22;63678;47.994;7.854;2023-05-10T03:26:32;13.50;99.90
2453;DHT22;63678;47.994;7.854;2023-05-10T03:29:13;13.40;99.90
2453;DHT22;63678;47.994;7.854;2023-05-10T03:34:25;13.50;99.90
2453;DHT22;63678;47.994;7.854;2023-05-10T03:36:58;13.40;99.90
2453;DHT22;63678;47.994;7.854;2023-05-10T03:39:33;13.50;99.90
2453;DHT22;63678;47.994;7.854;2023-05-10T03:42:07;13.50;99.90
2453;DHT22;63678;47.994;7.854;2023-05-10T03:44:39;13.50;99.90
2453;DHT22;63678;47.994;7.854;2023-05-10T03:49:45;13.40;99.90
2453;DHT22;63678;47.994;7.854;2023-05-10T03:52:17;13.40;99.90
2453;DHT22;63678;47.994;7.854;2023-05-10T03:54:50;13.50;99.90
2453;DHT22;63678;47.994;7.854;2023-05-10T03:57:22;13.50;99.90
2453;DHT22;63678;47.994;7.854;2023-05-10T03:59:54;13.50;99.90
2453;DHT22;63678;47.994;7.854;2023-05-10T04:02:28;13.50;99.90
2453;DHT22;63678;47.994;7.854;2023-05-10T04:05:02;13.50;99.90
2453;DHT22;63678;47.994;7.854;2023-05-10T04:10:07;13.40;99.90
2453;DHT22;63678;47.994;7.854;2023-05-10T04:12:40;13.30;99.90
2453;DHT22;63678;47.994;7.854;2023-05-10T04:15:12;13.30;99.90
2453;DHT22;63678;47.994;7.854;2023-05-10T04:17:45;13.20;99.90
2453;DHT22;63678;47.994;7.854;2023-05-10T04:20:17;13.20;99.90
2453;DHT22;63678;47.994;7.854;2023-05-10T04:22:49;13.20;99.90
2453;DHT22;63678;47.994;7.854;2023-05-10T04:25:22;13.20;99.90
2453;DHT22;63678;47.994;7.854;2023-05-10T04:27:54;13.30;99.90
2453;DHT22;63678;47.994;7.854;2023-05-10T04:33:01;13.30;99.90
2453;DHT22;63678;47.994;7.854;2023-05-10T04:35:34;13.30;99.90
2453;DHT22;63678;47.994;7.854;2023-05-10T04:38:07;13.30;99.90
2453;DHT22;63678;47.994;7.854;2023-05-10T04:40:39;13.30;99.90
2453;DHT22;63678;47.994;7.854;2023-05-10T04:48:16;13.60;99.90
2453;DHT22;63678;47.994;7.854;2023-05-10T04:55:54;13.50;99.90
2453;DHT22;63678;47.994;7.854;2023-05-10T05:01:05;13.60;99.90
2453;DHT22;63678;47.994;7.854;2023-05-10T05:03:39;13.50;99.90
2453;DHT22;63678;47.994;7.854;2023-05-10T05:06:11;13.50;99.90
2453;DHT22;63678;47.994;7.854;2023-05-10T05:08:43;13.60;99.90
2453;DHT22;63678;47.994;7.854;2023-05-10T05:11:16;13.50;99.90
2453;DHT22;63678;47.994;7.854;2023-05-10T05:13:48;13.50;99.90
2453;DHT22;63678;47.994;7.854;2023-05-10T05:16:20;13.60;99.90
2453;DHT22;63678;47.994;7.854;2023-05-10T05:21:26;13.60;99.90
2453;DHT22;63678;47.994;7.854;2023-05-10T05:31:37;13.60;99.90
2453;DHT22;63678;47.994;7.854;2023-05-10T05:34:09;13.70;99.90
2453;DHT22;63678;47.994;7.854;2023-05-10T05:36:41;13.60;99.90
2453;DHT22;63678;47.994;7.854;2023-05-10T05:39:14;13.60;99.90
2453;DHT22;63678;47.994;7.854;2023-05-10T05:41:46;13.60;99.90
2453;DHT22;63678;47.994;7.854;2023-05-10T05:44:18;13.70;99.90
2453;DHT22;63678;47.994;7.854;2023-05-10T05:46:50;13.60;99.90
2453;DHT22;63678;47.994;7.854;2023-05-10T05:52:02;13.50;99.90
2453;DHT22;63678;47.994;7.854;2023-05-10T05:57:07;13.50;99.90
2453;DHT22;63678;47.994;7.854;2023-05-10T05:59:40;13.40;99.90
2453;DHT22;63678;47.994;7.854;2023-05-10T06:04:47;13.10;99.90
2453;DHT22;63678;47.994;7.854;2023-05-10T06:07:20;13.10;99.90
2453;DHT22;63678;47.994;7.854;2023-05-10T06:12:25;13.10;99.90
2453;DHT22;63678;47.994;7.854;2023-05-10T06:17:30;13.10;99.90
2453;DHT22;63678;47.994;7.854;2023-05-10T06:20:02;13.10;99.90
2453;DHT22;63678;47.994;7.854;2023-05-10T06:25:08;13.10;99.90
2453;DHT22;63678;47.994;7.854;2023-05-10T06:27:41;13.20;99.90
2453;DHT22;63678;47.994;7.854;2023-05-10T06:30:13;13.30;99.90
2453;DHT22;63678;47.994;7.854;2023-05-10T06:32:46;13.20;99.90
2453;DHT22;63678;47.994;7.854;2023-05-10T06:35:21;13.30;99.90
2453;DHT22;63678;47.994;7.854;2023-05-10T06:37:54;13.20;99.90
2453;DHT22;63678;47.994;7.854;2023-05-10T06:40:26;13.20;99.90
2453;DHT22;63678;47.994;7.854;2023-05-10T06:42:59;13.30;99.90
2453;DHT22;63678;47.994;7.854;2023-05-10T06:50:37;13.50;99.90
2453;DHT22;63678;47.994;7.854;2023-05-10T06:55:41;13.40;99.90
2453;DHT22;63678;47.994;7.854;2023-05-10T06:58:13;13.40;99.90
2453;DHT22;63678;47.994;7.854;2023-05-10T07:00:46;13.50;99.90
2453;DHT22;63678;47.994;7.854;2023-05-10T07:05:51;13.80;99.90
2453;DHT22;63678;47.994;7.854;2023-05-10T07:08:24;14.10;99.90
2453;DHT22;63678;47.994;7.854;2023-05-10T07:11:03;13.90;99.90
2453;DHT22;63678;47.994;7.854;2023-05-10T07:18:43;14.80;99.90
2453;DHT22;63678;47.994;7.854;2023-05-10T07:21:15;14.90;99.90
2453;DHT22;63678;47.994;7.854;2023-05-10T07:26:20;14.40;99.90
2453;DHT22;63678;47.994;7.854;2023-05-10T07:31:25;14.60;99.90
2453;DHT22;63678;47.994;7.854;2023-05-10T07:33:57;14.50;99.90
2453;DHT22;63678;47.994;7.854;2023-05-10T07:36:29;14.40;99.90
2453;DHT22;63678;47.994;7.854;2023-05-10T07:39:02;14.20;99.90
2453;DHT22;63678;47.994;7.854;2023-05-10T07:41:34;14.20;99.90
2453;DHT22;63678;47.994;7.854;2023-05-10T07:46:39;14.40;99.90
2453;DHT22;63678;47.994;7.854;2023-05-10T07:49:12;14.60;99.90
2453;DHT22;63678;47.994;7.854;2023-05-10T07:51:44;14.80;99.90
2453;DHT22;63678;47.994;7.854;2023-05-10T07:54:16;15.50;99.90
2453;DHT22;63678;47.994;7.854;2023-05-10T07:56:49;15.30;99.90
2453;DHT22;63678;47.994;7.854;2023-05-10T07:59:22;15.30;99.90
2453;DHT22;63678;47.994;7.854;2023-05-10T08:01:54;14.90;99.90
2453;DHT22;63678;47.994;7.854;2023-05-10T08:04:27;14.90;99.90
2453;DHT22;63678;47.994;7.854;2023-05-10T08:09:33;14.90;99.90
2453;DHT22;63678;47.994;7.854;2023-05-10T08:12:05;14.30;99.90
2453;DHT22;63678;47.994;7.854;2023-05-10T08:14:37;16.20;99.90
2453;DHT22;63678;47.994;7.854;2023-05-10T08:40:48;16.80;99.90
2453;DHT22;63678;47.994;7.854;2023-05-10T08:43:25;16.80;99.90
2453;DHT22;63678;47.994;7.854;2023-05-10T08:46:00;16.50;99.90
2453;DHT22;63678;47.994;7.854;2023-05-10T08:51:08;17.00;99.90
2453;DHT22;63678;47.994;7.854;2023-05-10T08:56:15;17.40;99.90
2453;DHT22;63678;47.994;7.854;2023-05-10T08:58:50;16.80;99.90
2453;DHT22;63678;47.994;7.854;2023-05-10T09:01:23;16.80;99.90
2453;DHT22;63678;47.994;7.854;2023-05-10T09:03:56;16.90;99.90
2453;DHT22;63678;47.994;7.854;2023-05-10T09:06:28;17.20;99.90
2453;DHT22;63678;47.994;7.854;2023-05-10T09:14:08;17.70;99.90
2453;DHT22;63678;47.994;7.854;2023-05-10T09:19:14;17.50;99.90
2453;DHT22;63678;47.994;7.854;2023-05-10T09:26:52;17.20;99.90
2453;DHT22;63678;47.994;7.854;2023-05-10T09:34:32;17.80;99.90
2453;DHT22;63678;47.994;7.854;2023-05-10T09:37:05;17.70;99.90
2453;DHT22;63678;47.994;7.854;2023-05-10T09:44:43;19.00;99.90
2453;DHT22;63678;47.994;7.854;2023-05-10T09:47:18;18.80;99.90
2453;DHT22;63678;47.994;7.854;2023-05-10T09:52:30;18.80;99.90
2453;DHT22;63678;47.994;7.854;2023-05-10T09:55:03;18.90;99.90
2453;DHT22;63678;47.994;7.854;2023-05-10T10:02:47;18.90;99.90
2453;DHT22;63678;47.994;7.854;2023-05-10T10:05:20;18.90;99.90
2453;DHT22;63678;47.994;7.854;2023-05-10T10:07:52;19.40;99.90
2453;DHT22;63678;47.994;7.854;2023-05-10T10:15:38;19.90;99.90
2453;DHT22;63678;47.994;7.854;2023-05-10T10:18:13;19.20;99.90
2453;DHT22;63678;47.994;7.854;2023-05-10T10:23:20;19.40;99.90
2453;DHT22;63678;47.994;7.854;2023-05-10T10:25:53;19.40;99.90
2453;DHT22;63678;47.994;7.854;2023-05-10T10:28:56;17.90;99.90
2453;DHT22;63678;47.994;7.854;2023-05-10T10:37:44;19.20;99.90
2453;DHT22;63678;47.994;7.854;2023-05-10T10:40:28;19.80;99.90
2453;DHT22;63678;47.994;7.854;2023-05-10T10:46:10;18.60;99.90
2453;DHT22;63678;47.994;7.854;2023-05-10T10:48:49;18.80;99.90
2453;DHT22;63678;47.994;7.854;2023-05-10T10:54:09;18.70;99.90
2453;DHT22;63678;47.994;7.854;2023-05-10T10:56:44;18.40;99.90
2453;DHT22;63678;47.994;7.854;2023-05-10T10:59:27;18.80;99.90
2453;DHT22;63678;47.994;7.854;2023-05-10T11:02:00;17.80;99.90
2453;DHT22;63678;47.994;7.854;2023-05-10T11:04:41;18.00;99.90
2453;DHT22;63678;47.994;7.854;2023-05-10T11:07:19;18.30;99.90
2453;DHT22;63678;47.994;7.854;2023-05-10T11:12:29;16.50;99.90
2453;DHT22;63678;47.994;7.854;2023-05-10T11:15:01;17.40;99.90
2453;DHT22;63678;47.994;7.854;2023-05-10T11:17:34;17.50;99.90
2453;DHT22;63678;47.994;7.854;2023-05-10T11:20:13;17.30;99.90
2453;DHT22;63678;47.994;7.854;2023-05-10T11:22:51;17.10;99.90
2453;DHT22;63678;47.994;7.854;2023-05-10T11:25:27;17.50;99.90
2453;DHT22;63678;47.994;7.854;2023-05-10T11:28:02;17.20;99.90
2453;DHT22;63678;47.994;7.854;2023-05-10T11:30:38;17.30;99.90
2453;DHT22;63678;47.994;7.854;2023-05-10T11:33:16;17.10;99.90
2453;DHT22;63678;47.994;7.854;2023-05-10T11:38:22;17.50;99.90
2453;DHT22;63678;47.994;7.854;2023-05-10T11:40:54;17.20;99.90
2453;DHT22;63678;47.994;7.854;2023-05-10T11:43:27;16.90;99.90
2453;DHT22;63678;47.994;7.854;2023-05-10T11:46:02;17.10;99.90
2453;DHT22;63678;47.994;7.854;2023-05-10T11:51:08;17.50;99.90
2453;DHT22;63678;47.994;7.854;2023-05-10T11:53:41;17.40;99.90
2453;DHT22;63678;47.994;7.854;2023-05-10T11:58:55;16.60;99.90
2453;DHT22;63678;47.994;7.854;2023-05-10T12:01:28;16.70;99.90
2453;DHT22;63678;47.994;7.854;2023-05-10T12:04:01;16.80;99.90
2453;DHT22;63678;47.994;7.854;2023-05-10T12:06:37;16.60;99.90
2453;DHT22;63678;47.994;7.854;2023-05-10T12:21:57;17.70;99.90
2453;DHT22;63678;47.994;7.854;2023-05-10T12:27:05;17.60;99.90
2453;DHT22;63678;47.994;7.854;2023-05-10T12:29:41;17.20;99.90
2453;DHT22;63678;47.994;7.854;2023-05-10T12:32:16;17.20;99.90
2453;DHT22;63678;47.994;7.854;2023-05-10T12:37:24;16.70;99.90
2453;DHT22;63678;47.994;7.854;2023-05-10T12:40:00;16.40;99.90
2453;DHT22;63678;47.994;7.854;2023-05-10T12:42:32;16.10;99.90
2453;DHT22;63678;47.994;7.854;2023-05-10T12:45:05;15.70;99.90
2453;DHT22;63678;47.994;7.854;2023-05-10T12:47:38;15.20;99.90
2453;DHT22;63678;47.994;7.854;2023-05-10T12:50:14;15.20;99.90
2453;DHT22;63678;47.994;7.854;2023-05-10T12:55:20;15.30;99.90
2453;DHT22;63678;47.994;7.854;2023-05-10T12:57:52;15.50;99.90
2453;DHT22;63678;47.994;7.854;2023-05-10T13:00:24;15.60;99.90
2453;DHT22;63678;47.994;7.854;2023-05-10T13:02:56;15.90;99.90
2453;DHT22;63678;47.994;7.854;2023-05-10T13:10:34;16.60;99.90
2453;DHT22;63678;47.994;7.854;2023-05-10T13:15:40;16.60;99.90
2453;DHT22;63678;47.994;7.854;2023-05-10T13:18:12;16.40;99.90
2453;DHT22;63678;47.994;7.854;2023-05-10T13:23:17;16.20;99.90
2453;DHT22;63678;47.994;7.854;2023-05-10T13:25:49;16.10;99.90
2453;DHT22;63678;47.994;7.854;2023-05-10T13:30:54;18.30;99.90
2453;DHT22;63678;47.994;7.854;2023-05-10T13:33:27;15.70;99.90
2453;DHT22;63678;47.994;7.854;2023-05-10T13:35:59;16.10;99.90
2453;DHT22;63678;47.994;7.854;2023-05-10T13:38:32;16.10;99.90
2453;DHT22;63678;47.994;7.854;2023-05-10T13:41:04;16.00;99.90
2453;DHT22;63678;47.994;7.854;2023-05-10T13:46:09;16.10;99.90
2453;DHT22;63678;47.994;7.854;2023-05-10T13:48:41;16.50;99.90
2453;DHT22;63678;47.994;7.854;2023-05-10T13:56:19;16.90;99.90
2453;DHT22;63678;47.994;7.854;2023-05-10T14:06:29;18.10;99.90
2453;DHT22;63678;47.994;7.854;2023-05-10T14:09:03;18.00;99.90
2453;DHT22;63678;47.994;7.854;2023-05-10T14:14:08;17.10;99.90
2453;DHT22;63678;47.994;7.854;2023-05-10T14:16:44;16.90;99.90
2453;DHT22;63678;47.994;7.854;2023-05-10T14:24:23;16.60;99.90
2453;DHT22;63678;47.994;7.854;2023-05-10T14:29:28;16.60;99.90
2453;DHT22;63678;47.994;7.854;2023-05-10T14:32:01;16.40;99.90
2453;DHT22;63678;47.994;7.854;2023-05-10T14:34:59;16.30;99.90
2453;DHT22;63678;47.994;7.854;2023-05-10T14:37:32;16.20;99.90
2453;DHT22;63678;47.994;7.854;2023-05-10T14:40:06;16.30;99.90
2453;DHT22;63678;47.994;7.854;2023-05-10T14:42:39;16.20;99.90
2453;DHT22;63678;47.994;7.854;2023-05-10T14:50:17;16.20;99.90
2453;DHT22;63678;47.994;7.854;2023-05-10T14:58:11;16.40;99.90
2453;DHT22;63678;47.994;7.854;2023-05-10T15:03:17;16.40;99.90
2453;DHT22;63678;47.994;7.854;2023-05-10T15:13:29;16.80;99.90
2453;DHT22;63678;47.994;7.854;2023-05-10T15:16:02;16.60;99.90
2453;DHT22;63678;47.994;7.854;2023-05-10T15:26:12;16.70;99.90
2453;DHT22;63678;47.994;7.854;2023-05-10T15:31:17;16.70;99.90
2453;DHT22;63678;47.994;7.854;2023-05-10T15:36:22;17.10;99.90
2453;DHT22;63678;47.994;7.854;2023-05-10T15:38:54;17.70;99.90
2453;DHT22;63678;47.994;7.854;2023-05-10T15:41:27;17.90;99.90
2453;DHT22;63678;47.994;7.854;2023-05-10T15:44:00;17.70;99.90
2453;DHT22;63678;47.994;7.854;2023-05-10T15:46:32;17.60;99.90
2453;DHT22;63678;47.994;7.854;2023-05-10T15:54:11;17.40;99.90
2453;DHT22;63678;47.994;7.854;2023-05-10T15:59:16;17.00;99.90
2453;DHT22;63678;47.994;7.854;2023-05-10T16:04:22;16.60;99.90
2453;DHT22;63678;47.994;7.854;2023-05-10T16:06:54;16.80;99.90
2453;DHT22;63678;47.994;7.854;2023-05-10T16:09:27;16.80;99.90
2453;DHT22;63678;47.994;7.854;2023-05-10T16:12:00;16.60;99.90
2453;DHT22;63678;47.994;7.854;2023-05-10T16:14:33;16.70;99.90
2453;DHT22;63678;47.994;7.854;2023-05-10T16:19:38;16.50;99.90
2453;DHT22;63678;47.994;7.854;2023-05-10T16:24:45;16.10;99.90
2453;DHT22;63678;47.994;7.854;2023-05-10T16:29:49;16.20;99.90
2453;DHT22;63678;47.994;7.854;2023-05-10T16:37:30;16.30;99.90
2453;DHT22;63678;47.994;7.854;2023-05-10T16:40:02;16.10;99.90
2453;DHT22;63678;47.994;7.854;2023-05-10T16:42:38;16.10;99.90
2453;DHT22;63678;47.994;7.854;2023-05-10T16:52:51;16.50;99.90
2453;DHT22;63678;47.994;7.854;2023-05-10T17:00:52;16.80;99.90
2453;DHT22;63678;47.994;7.854;2023-05-10T17:08:30;16.80;99.90
2453;DHT22;63678;47.994;7.854;2023-05-10T17:11:03;16.80;99.90
2453;DHT22;63678;47.994;7.854;2023-05-10T17:18:43;16.70;99.90
2453;DHT22;63678;47.994;7.854;2023-05-10T17:21:16;16.80;99.90
2453;DHT22;63678;47.994;7.854;2023-05-10T17:26:21;16.50;99.90
2453;DHT22;63678;47.994;7.854;2023-05-10T17:28:54;16.60;99.90
2453;DHT22;63678;47.994;7.854;2023-05-10T17:31:27;16.50;99.90
2453;DHT22;63678;47.994;7.854;2023-05-10T17:36:36;16.10;99.90
2453;DHT22;63678;47.994;7.854;2023-05-10T17:41:42;16.50;99.90
2453;DHT22;63678;47.994;7.854;2023-05-10T17:51:52;16.50;99.90
2453;DHT22;63678;47.994;7.854;2023-05-10T18:04:42;16.00;99.90
2453;DHT22;63678;47.994;7.854;2023-05-10T18:07:36;16.00;99.90
2453;DHT22;63678;47.994;7.854;2023-05-10T18:10:09;16.20;99.90
2453;DHT22;63678;47.994;7.854;2023-05-10T18:12:42;16.20;99.90
2453;DHT22;63678;47.994;7.854;2023-05-10T18:15:15;16.10;99.90
2453;DHT22;63678;47.994;7.854;2023-05-10T18:17:48;16.10;99.90
2453;DHT22;63678;47.994;7.854;2023-05-10T18:20:22;16.10;99.90
2453;DHT22;63678;47.994;7.854;2023-05-10T18:22:55;16.00;99.90
2453;DHT22;63678;47.994;7.854;2023-05-10T18:25:31;15.80;99.90
2453;DHT22;63678;47.994;7.854;2023-05-10T18:28:04;15.60;99.90
2453;DHT22;63678;47.994;7.854;2023-05-10T18:30:39;15.30;99.90
2453;DHT22;63678;47.994;7.854;2023-05-10T18:40:55;15.00;99.90
2453;DHT22;63678;47.994;7.854;2023-05-10T18:43:30;15.00;99.90
2453;DHT22;63678;47.994;7.854;2023-05-10T18:46:02;14.80;99.90
2453;DHT22;63678;47.994;7.854;2023-05-10T18:48:35;14.80;99.90
2453;DHT22;63678;47.994;7.854;2023-05-10T18:51:08;14.80;99.90
2453;DHT22;63678;47.994;7.854;2023-05-10T18:53:41;14.80;99.90
2453;DHT22;63678;47.994;7.854;2023-05-10T18:56:14;14.70;99.90
2453;DHT22;63678;47.994;7.854;2023-05-10T18:58:46;14.70;99.90
2453;DHT22;63678;47.994;7.854;2023-05-10T19:01:20;14.70;99.90
2453;DHT22;63678;47.994;7.854;2023-05-10T19:03:53;14.60;99.90
2453;DHT22;63678;47.994;7.854;2023-05-10T19:08:58;14.40;99.90
2453;DHT22;63678;47.994;7.854;2023-05-10T19:14:05;14.40;99.90
2453;DHT22;63678;47.994;7.854;2023-05-10T19:21:48;14.20;99.90
2453;DHT22;63678;47.994;7.854;2023-05-10T19:24:20;14.20;99.90
2453;DHT22;63678;47.994;7.854;2023-05-10T19:27:16;14.00;99.90
2453;DHT22;63678;47.994;7.854;2023-05-10T19:29:48;14.10;99.90
2453;DHT22;63678;47.994;7.854;2023-05-10T19:32:21;14.00;99.90
2453;DHT22;63678;47.994;7.854;2023-05-10T19:34:58;14.20;99.90
2453;DHT22;63678;47.994;7.854;2023-05-10T19:37:30;14.10;99.90
2453;DHT22;63678;47.994;7.854;2023-05-10T19:40:03;14.00;99.90
2453;DHT22;63678;47.994;7.854;2023-05-10T19:45:09;14.00;99.90
2453;DHT22;63678;47.994;7.854;2023-05-10T19:47:43;14.00;99.90
2453;DHT22;63678;47.994;7.854;2023-05-10T19:50:15;14.00;99.90
2453;DHT22;63678;47.994;7.854;2023-05-10T19:55:29;13.90;99.90
2453;DHT22;63678;47.994;7.854;2023-05-10T20:00:36;13.90;99.90
2453;DHT22;63678;47.994;7.854;2023-05-10T20:03:09;13.90;99.90
2453;DHT22;63678;47.994;7.854;2023-05-10T20:05:43;13.90;99.90
2453;DHT22;63678;47.994;7.854;2023-05-10T20:08:15;13.90;99.90
2453;DHT22;63678;47.994;7.854;2023-05-10T20:10:48;13.90;99.90
2453;DHT22;63678;47.994;7.854;2023-05-10T20:13:20;13.90;99.90
2453;DHT22;63678;47.994;7.854;2023-05-10T20:15:56;13.90;99.90
2453;DHT22;63678;47.994;7.854;2023-05-10T20:18:29;13.90;99.90
2453;DHT22;63678;47.994;7.854;2023-05-10T20:21:01;13.90;99.90
2453;DHT22;63678;47.994;7.854;2023-05-10T20:23:34;13.90;99.90
2453;DHT22;63678;47.994;7.854;2023-05-10T20:28:40;13.80;99.90
2453;DHT22;63678;47.994;7.854;2023-05-10T20:33:46;13.70;99.90
2453;DHT22;63678;47.994;7.854;2023-05-10T20:36:18;13.80;99.90
2453;DHT22;63678;47.994;7.854;2023-05-10T20:38:51;13.70;99.90
2453;DHT22;63678;47.994;7.854;2023-05-10T20:41:23;13.70;99.90
2453;DHT22;63678;47.994;7.854;2023-05-10T20:43:56;13.80;99.90
2453;DHT22;63678;47.994;7.854;2023-05-10T20:46:28;13.70;99.90
2453;DHT22;63678;47.994;7.854;2023-05-10T20:49:01;13.70;99.90
2453;DHT22;63678;47.994;7.854;2023-05-10T20:56:42;13.60;99.90
2453;DHT22;63678;47.994;7.854;2023-05-10T20:59:14;13.60;99.90
2453;DHT22;63678;47.994;7.854;2023-05-10T21:01:46;13.60;99.90
2453;DHT22;63678;47.994;7.854;2023-05-10T21:06:52;13.60;99.90
2453;DHT22;63678;47.994;7.854;2023-05-10T21:12:00;13.60;99.90
2453;DHT22;63678;47.994;7.854;2023-05-10T21:17:07;13.50;99.90
2453;DHT22;63678;47.994;7.854;2023-05-10T21:19:40;13.50;99.90
2453;DHT22;63678;47.994;7.854;2023-05-10T21:24:45;13.30;99.90
2453;DHT22;63678;47.994;7.854;2023-05-10T21:29:50;13.30;99.90
2453;DHT22;63678;47.994;7.854;2023-05-10T21:32:23;13.20;99.90
2453;DHT22;63678;47.994;7.854;2023-05-10T21:34:55;13.20;99.90
2453;DHT22;63678;47.994;7.854;2023-05-10T21:37:28;13.20;99.90
2453;DHT22;63678;47.994;7.854;2023-05-10T21:40:00;13.20;99.90
2453;DHT22;63678;47.994;7.854;2023-05-10T21:42:32;13.20;99.90
2453;DHT22;63678;47.994;7.854;2023-05-10T21:47:38;13.10;99.90
2453;DHT22;63678;47.994;7.854;2023-05-10T21:50:11;13.00;99.90
2453;DHT22;63678;47.994;7.854;2023-05-10T21:55:16;12.90;99.90
2453;DHT22;63678;47.994;7.854;2023-05-10T21:57:50;12.80;99.90
2453;DHT22;63678;47.994;7.854;2023-05-10T22:00:22;12.70;99.90
2453;DHT22;63678;47.994;7.854;2023-05-10T22:02:55;12.70;99.90
2453;DHT22;63678;47.994;7.854;2023-05-10T22:08:00;12.70;99.90
2453;DHT22;63678;47.994;7.854;2023-05-10T22:10:33;12.60;99.90
2453;DHT22;63678;47.994;7.854;2023-05-10T22:15:38;12.50;99.90
2453;DHT22;63678;47.994;7.854;2023-05-10T22:20:44;12.50;99.90
2453;DHT22;63678;47.994;7.854;2023-05-10T22:23:17;12.40;99.90
2453;DHT22;63678;47.994;7.854;2023-05-10T22:28:23;12.40;99.90
2453;DHT22;63678;47.994;7.854;2023-05-10T22:30:55;12.40;99.90
2453;DHT22;63678;47.994;7.854;2023-05-10T22:33:28;12.40;99.90
2453;DHT22;63678;47.994;7.854;2023-05-10T22:36:00;12.50;99.90
2453;DHT22;63678;47.994;7.854;2023-05-10T22:38:33;12.50;99.90
2453;DHT22;63678;47.994;7.854;2023-05-10T22:41:05;12.50;99.90
2453;DHT22;63678;47.994;7.854;2023-05-10T22:43:40;12.50;99.90
2453;DHT22;63678;47.994;7.854;2023-05-10T22:46:13;12.40;99.90
2453;DHT22;63678;47.994;7.854;2023-05-10T22:48:46;12.50;99.90
2453;DHT22;63678;47.994;7.854;2023-05-10T22:56:24;12.60;99.90
2453;DHT22;63678;47.994;7.854;2023-05-10T22:58:58;12.60;99.90
2453;DHT22;63678;47.994;7.854;2023-05-10T23:04:03;12.60;99.90
2453;DHT22;63678;47.994;7.854;2023-05-10T23:06:36;12.60;99.90
2453;DHT22;63678;47.994;7.854;2023-05-10T23:09:10;12.70;99.90
2453;DHT22;63678;47.994;7.854;2023-05-10T23:11:43;12.50;99.90
2453;DHT22;63678;47.994;7.854;2023-05-10T23:16:48;12.60;99.90
2453;DHT22;63678;47.994;7.854;2023-05-10T23:19:20;12.60;99.90
2453;DHT22;63678;47.994;7.854;2023-05-10T23:21:53;12.60;99.90
2453;DHT22;63678;47.994;7.854;2023-05-10T23:24:25;12.50;99.90
2453;DHT22;63678;47.994;7.854;2023-05-10T23:29:30;12.50;99.90
2453;DHT22;63678;47.994;7.854;2023-05-10T23:32:04;12.60;99.90
2453;DHT22;63678;47.994;7.854;2023-05-10T23:34:36;12.50;99.90
2453;DHT22;63678;47.994;7.854;2023-05-10T23:40:12;12.50;99.90
2453;DHT22;63678;47.994;7.854;2023-05-10T23:42:45;12.50;99.90
2453;DHT22;63678;47.994;7.854;2023-05-10T23:47:50;12.50;99.90
2453;DHT22;63678;47.994;7.854;2023-05-10T23:50:23;12.50;99.90
2453;DHT22;63678;47.994;7.854;2023-05-10T23:52:56;12.50;99.90
2453;DHT22;63678;47.994;7.854;2023-05-10T23:58:01;12.50;99.90
